sensor_id;sensor_type;location;lat;lon;timestamp;P1;durP1;ratioP1;P2;durP2;ratioP2
38208;SDS011;24016;52.102;11.584;2022-10-17T00:00:34;6.40;;;2.67;;
38208;SDS011;24016;52.102;11.584;2022-10-17T00:03:00;4.93;;;2.97;;
38208;SDS011;24016;52.102;11.584;2022-10-17T00:05:26;4.45;;;2.80;;
38208;SDS011;24016;52.102;11.584;2022-10-17T00:07:52;4.85;;;2.92;;
38208;SDS011;24016;52.102;11.584;2022-10-17T00:10:18;5.00;;;3.03;;
38208;SDS011;24016;52.102;11.584;2022-10-17T00:12:43;4.55;;;3.03;;
38208;SDS011;24016;52.102;11.584;2022-10-17T00:15:09;4.95;;;2.92;;
38208;SDS011;24016;52.102;11.584;2022-10-17T00:17:38;4.47;;;2.88;;
38208;SDS011;24016;52.102;11.584;2022-10-17T00:20:04;3.75;;;2.53;;
38208;SDS011;24016;52.102;11.584;2022-10-17T00:22:30;4.63;;;3.10;;
38208;SDS011;24016;52.102;11.584;2022-10-17T00:24:55;4.85;;;2.90;;
38208;SDS011;24016;52.102;11.584;2022-10-17T00:27:21;4.82;;;3.05;;
38208;SDS011;24016;52.102;11.584;2022-10-17T00:29:47;4.43;;;2.78;;
38208;SDS011;24016;52.102;11.584;2022-10-17T00:32:14;4.82;;;3.05;;
38208;SDS011;24016;52.102;11.584;2022-10-17T00:34:40;4.30;;;3.17;;
38208;SDS011;24016;52.102;11.584;2022-10-17T00:37:05;4.35;;;2.78;;
38208;SDS011;24016;52.102;11.584;2022-10-17T00:39:31;4.32;;;3.00;;
38208;SDS011;24016;52.102;11.584;2022-10-17T00:41:56;4.22;;;3.03;;
38208;SDS011;24016;52.102;11.584;2022-10-17T00:46:54;4.38;;;3.15;;
38208;SDS011;24016;52.102;11.584;2022-10-17T00:49:20;5.05;;;3.00;;
38208;SDS011;24016;52.102;11.584;2022-10-17T00:51:55;5.43;;;3.20;;
38208;SDS011;24016;52.102;11.584;2022-10-17T00:54:27;3.97;;;3.00;;
38208;SDS011;24016;52.102;11.584;2022-10-17T00:56:56;4.93;;;3.42;;
38208;SDS011;24016;52.102;11.584;2022-10-17T00:59:23;4.30;;;3.05;;
38208;SDS011;24016;52.102;11.584;2022-10-17T01:01:55;3.92;;;2.80;;
38208;SDS011;24016;52.102;11.584;2022-10-17T01:04:25;5.28;;;3.33;;
38208;SDS011;24016;52.102;11.584;2022-10-17T01:06:50;4.68;;;3.00;;
38208;SDS011;24016;52.102;11.584;2022-10-17T01:09:16;5.88;;;3.50;;
38208;SDS011;24016;52.102;11.584;2022-10-17T01:11:54;4.20;;;3.35;;
38208;SDS011;24016;52.102;11.584;2022-10-17T01:14:57;5.82;;;3.90;;
38208;SDS011;24016;52.102;11.584;2022-10-17T01:28:17;7.20;;;4.22;;
38208;SDS011;24016;52.102;11.584;2022-10-17T01:33:37;7.18;;;5.43;;
38208;SDS011;24016;52.102;11.584;2022-10-17T01:36:14;6.75;;;5.05;;
38208;SDS011;24016;52.102;11.584;2022-10-17T01:41:35;7.25;;;6.30;;
38208;SDS011;24016;52.102;11.584;2022-10-17T01:44:26;8.95;;;5.63;;
38208;SDS011;24016;52.102;11.584;2022-10-17T01:47:18;7.60;;;5.75;;
38208;SDS011;24016;52.102;11.584;2022-10-17T01:49:46;7.55;;;6.50;;
38208;SDS011;24016;52.102;11.584;2022-10-17T01:52:26;10.43;;;6.40;;
38208;SDS011;24016;52.102;11.584;2022-10-17T01:55:14;6.32;;;5.60;;
38208;SDS011;24016;52.102;11.584;2022-10-17T01:57:45;7.35;;;5.72;;
38208;SDS011;24016;52.102;11.584;2022-10-17T02:00:16;8.38;;;6.60;;
38208;SDS011;24016;52.102;11.584;2022-10-17T02:02:44;6.70;;;6.05;;
38208;SDS011;24016;52.102;11.584;2022-10-17T02:05:12;9.35;;;6.90;;
38208;SDS011;24016;52.102;11.584;2022-10-17T02:07:39;7.85;;;7.13;;
38208;SDS011;24016;52.102;11.584;2022-10-17T02:10:08;7.32;;;6.47;;
38208;SDS011;24016;52.102;11.584;2022-10-17T02:12:44;7.70;;;6.50;;
38208;SDS011;24016;52.102;11.584;2022-10-17T02:15:35;7.45;;;6.75;;
38208;SDS011;24016;52.102;11.584;2022-10-17T02:23:44;8.88;;;7.47;;
38208;SDS011;24016;52.102;11.584;2022-10-17T02:29:35;9.65;;;7.25;;
38208;SDS011;24016;52.102;11.584;2022-10-17T02:32:12;10.93;;;7.63;;
38208;SDS011;24016;52.102;11.584;2022-10-17T02:34:45;10.35;;;7.60;;
38208;SDS011;24016;52.102;11.584;2022-10-17T02:37:14;8.73;;;7.82;;
38208;SDS011;24016;52.102;11.584;2022-10-17T02:39:43;9.25;;;7.90;;
38208;SDS011;24016;52.102;11.584;2022-10-17T02:42:11;8.60;;;7.80;;
38208;SDS011;24016;52.102;11.584;2022-10-17T02:44:39;9.80;;;8.38;;
38208;SDS011;24016;52.102;11.584;2022-10-17T02:47:11;9.88;;;8.75;;
38208;SDS011;24016;52.102;11.584;2022-10-17T02:49:56;10.60;;;8.65;;
38208;SDS011;24016;52.102;11.584;2022-10-17T02:52:34;11.88;;;8.68;;
38208;SDS011;24016;52.102;11.584;2022-10-17T02:55:09;9.98;;;8.45;;
38208;SDS011;24016;52.102;11.584;2022-10-17T03:00:12;12.73;;;9.00;;
38208;SDS011;24016;52.102;11.584;2022-10-17T03:02:40;10.27;;;8.30;;
38208;SDS011;24016;52.102;11.584;2022-10-17T03:05:10;11.02;;;8.57;;
38208;SDS011;24016;52.102;11.584;2022-10-17T03:07:37;11.35;;;9.07;;
38208;SDS011;24016;52.102;11.584;2022-10-17T03:10:03;13.93;;;9.27;;
38208;SDS011;24016;52.102;11.584;2022-10-17T03:12:29;13.90;;;10.02;;
38208;SDS011;24016;52.102;11.584;2022-10-17T03:14:55;11.55;;;8.63;;
38208;SDS011;24016;52.102;11.584;2022-10-17T03:17:20;11.07;;;9.05;;
38208;SDS011;24016;52.102;11.584;2022-10-17T03:19:46;14.55;;;9.45;;
38208;SDS011;24016;52.102;11.584;2022-10-17T03:22:11;10.20;;;9.13;;
38208;SDS011;24016;52.102;11.584;2022-10-17T03:24:37;10.82;;;9.23;;
38208;SDS011;24016;52.102;11.584;2022-10-17T03:27:02;10.48;;;8.98;;
38208;SDS011;24016;52.102;11.584;2022-10-17T03:29:28;11.10;;;9.45;;
38208;SDS011;24016;52.102;11.584;2022-10-17T03:31:54;10.35;;;9.35;;
38208;SDS011;24016;52.102;11.584;2022-10-17T03:34:20;11.32;;;9.27;;
38208;SDS011;24016;52.102;11.584;2022-10-17T03:36:45;12.32;;;9.27;;
38208;SDS011;24016;52.102;11.584;2022-10-17T03:39:11;14.10;;;9.93;;
38208;SDS011;24016;52.102;11.584;2022-10-17T03:41:37;12.57;;;9.43;;
38208;SDS011;24016;52.102;11.584;2022-10-17T03:44:02;13.48;;;10.30;;
38208;SDS011;24016;52.102;11.584;2022-10-17T03:46:28;13.60;;;9.75;;
38208;SDS011;24016;52.102;11.584;2022-10-17T03:48:53;12.07;;;10.02;;
38208;SDS011;24016;52.102;11.584;2022-10-17T03:51:19;11.80;;;10.07;;
38208;SDS011;24016;52.102;11.584;2022-10-17T03:53:45;12.13;;;10.70;;
38208;SDS011;24016;52.102;11.584;2022-10-17T03:58:40;11.93;;;10.73;;
38208;SDS011;24016;52.102;11.584;2022-10-17T04:01:07;13.13;;;10.77;;
38208;SDS011;24016;52.102;11.584;2022-10-17T04:03:34;16.30;;;10.38;;
38208;SDS011;24016;52.102;11.584;2022-10-17T04:06:00;14.90;;;10.93;;
38208;SDS011;24016;52.102;11.584;2022-10-17T04:08:26;11.52;;;9.98;;
38208;SDS011;24016;52.102;11.584;2022-10-17T04:10:56;14.05;;;11.18;;
38208;SDS011;24016;52.102;11.584;2022-10-17T04:13:23;11.80;;;10.50;;
38208;SDS011;24016;52.102;11.584;2022-10-17T04:15:55;13.13;;;11.48;;
38208;SDS011;24016;52.102;11.584;2022-10-17T04:18:22;13.45;;;10.15;;
38208;SDS011;24016;52.102;11.584;2022-10-17T04:20:48;12.93;;;10.68;;
38208;SDS011;24016;52.102;11.584;2022-10-17T04:23:13;13.43;;;10.75;;
38208;SDS011;24016;52.102;11.584;2022-10-17T04:25:40;13.00;;;11.35;;
38208;SDS011;24016;52.102;11.584;2022-10-17T04:28:05;12.95;;;11.63;;
38208;SDS011;24016;52.102;11.584;2022-10-17T04:30:31;14.55;;;11.70;;
38208;SDS011;24016;52.102;11.584;2022-10-17T04:32:57;15.18;;;12.45;;
38208;SDS011;24016;52.102;11.584;2022-10-17T04:35:22;13.63;;;12.05;;
38208;SDS011;24016;52.102;11.584;2022-10-17T04:37:48;15.65;;;13.23;;
38208;SDS011;24016;52.102;11.584;2022-10-17T04:40:13;16.50;;;12.07;;
38208;SDS011;24016;52.102;11.584;2022-10-17T04:42:39;12.63;;;11.38;;
38208;SDS011;24016;52.102;11.584;2022-10-17T04:45:06;13.07;;;11.85;;
38208;SDS011;24016;52.102;11.584;2022-10-17T04:47:32;15.18;;;12.27;;
38208;SDS011;24016;52.102;11.584;2022-10-17T04:49:57;13.40;;;12.00;;
38208;SDS011;24016;52.102;11.584;2022-10-17T04:52:23;15.48;;;12.70;;
38208;SDS011;24016;52.102;11.584;2022-10-17T04:54:49;13.95;;;12.25;;
38208;SDS011;24016;52.102;11.584;2022-10-17T04:57:15;14.48;;;12.98;;
38208;SDS011;24016;52.102;11.584;2022-10-17T04:59:41;17.27;;;13.73;;
38208;SDS011;24016;52.102;11.584;2022-10-17T05:02:07;14.43;;;12.93;;
38208;SDS011;24016;52.102;11.584;2022-10-17T05:04:32;15.15;;;13.02;;
38208;SDS011;24016;52.102;11.584;2022-10-17T05:06:58;14.90;;;13.32;;
38208;SDS011;24016;52.102;11.584;2022-10-17T05:09:23;16.75;;;13.13;;
38208;SDS011;24016;52.102;11.584;2022-10-17T05:11:49;17.08;;;14.15;;
38208;SDS011;24016;52.102;11.584;2022-10-17T05:14:15;14.30;;;12.80;;
38208;SDS011;24016;52.102;11.584;2022-10-17T05:16:40;14.30;;;12.80;;
38208;SDS011;24016;52.102;11.584;2022-10-17T05:19:06;17.33;;;13.95;;
38208;SDS011;24016;52.102;11.584;2022-10-17T05:21:31;17.30;;;14.15;;
38208;SDS011;24016;52.102;11.584;2022-10-17T05:23:57;17.15;;;13.07;;
38208;SDS011;24016;52.102;11.584;2022-10-17T05:26:23;15.77;;;13.43;;
38208;SDS011;24016;52.102;11.584;2022-10-17T05:28:49;17.90;;;13.95;;
38208;SDS011;24016;52.102;11.584;2022-10-17T05:31:16;17.00;;;14.23;;
38208;SDS011;24016;52.102;11.584;2022-10-17T05:33:42;21.40;;;14.25;;
38208;SDS011;24016;52.102;11.584;2022-10-17T05:36:08;25.77;;;14.57;;
38208;SDS011;24016;52.102;11.584;2022-10-17T05:38:34;23.70;;;14.95;;
38208;SDS011;24016;52.102;11.584;2022-10-17T05:41:00;19.33;;;14.50;;
38208;SDS011;24016;52.102;11.584;2022-10-17T05:43:27;16.17;;;12.55;;
38208;SDS011;24016;52.102;11.584;2022-10-17T05:45:53;14.65;;;12.25;;
38208;SDS011;24016;52.102;11.584;2022-10-17T05:48:19;15.80;;;12.52;;
38208;SDS011;24016;52.102;11.584;2022-10-17T05:50:45;15.02;;;12.52;;
38208;SDS011;24016;52.102;11.584;2022-10-17T05:53:11;17.58;;;13.40;;
38208;SDS011;24016;52.102;11.584;2022-10-17T05:55:36;14.38;;;11.98;;
38208;SDS011;24016;52.102;11.584;2022-10-17T05:58:02;14.68;;;12.35;;
38208;SDS011;24016;52.102;11.584;2022-10-17T06:00:28;15.48;;;12.50;;
38208;SDS011;24016;52.102;11.584;2022-10-17T06:02:53;14.77;;;12.25;;
38208;SDS011;24016;52.102;11.584;2022-10-17T06:05:19;14.85;;;11.85;;
38208;SDS011;24016;52.102;11.584;2022-10-17T06:07:45;13.00;;;11.52;;
38208;SDS011;24016;52.102;11.584;2022-10-17T06:10:12;14.32;;;10.70;;
38208;SDS011;24016;52.102;11.584;2022-10-17T06:12:40;14.98;;;11.27;;
38208;SDS011;24016;52.102;11.584;2022-10-17T06:15:06;12.10;;;9.55;;
38208;SDS011;24016;52.102;11.584;2022-10-17T06:17:32;12.60;;;10.07;;
38208;SDS011;24016;52.102;11.584;2022-10-17T06:19:58;14.52;;;9.80;;
38208;SDS011;24016;52.102;11.584;2022-10-17T06:22:23;11.35;;;9.07;;
38208;SDS011;24016;52.102;11.584;2022-10-17T06:24:49;12.88;;;9.48;;
38208;SDS011;24016;52.102;11.584;2022-10-17T06:27:16;11.25;;;8.82;;
38208;SDS011;24016;52.102;11.584;2022-10-17T06:29:42;12.90;;;8.68;;
38208;SDS011;24016;52.102;11.584;2022-10-17T06:32:07;14.32;;;9.10;;
38208;SDS011;24016;52.102;11.584;2022-10-17T06:34:33;11.98;;;8.05;;
38208;SDS011;24016;52.102;11.584;2022-10-17T06:36:59;15.20;;;7.72;;
38208;SDS011;24016;52.102;11.584;2022-10-17T06:39:24;13.30;;;8.00;;
38208;SDS011;24016;52.102;11.584;2022-10-17T06:41:51;11.88;;;7.30;;
38208;SDS011;24016;52.102;11.584;2022-10-17T06:44:16;10.18;;;7.43;;
38208;SDS011;24016;52.102;11.584;2022-10-17T06:46:42;7.88;;;6.47;;
38208;SDS011;24016;52.102;11.584;2022-10-17T06:49:08;11.73;;;6.45;;
38208;SDS011;24016;52.102;11.584;2022-10-17T06:51:35;15.27;;;6.72;;
38208;SDS011;24016;52.102;11.584;2022-10-17T06:54:02;7.00;;;5.82;;
38208;SDS011;24016;52.102;11.584;2022-10-17T06:56:28;10.05;;;6.07;;
38208;SDS011;24016;52.102;11.584;2022-10-17T06:58:53;11.18;;;6.60;;
38208;SDS011;24016;52.102;11.584;2022-10-17T07:01:19;12.75;;;6.38;;
38208;SDS011;24016;52.102;11.584;2022-10-17T07:03:46;9.00;;;5.95;;
38208;SDS011;24016;52.102;11.584;2022-10-17T07:06:14;8.35;;;5.78;;
38208;SDS011;24016;52.102;11.584;2022-10-17T07:08:43;9.50;;;5.90;;
38208;SDS011;24016;52.102;11.584;2022-10-17T07:11:10;8.57;;;5.32;;
38208;SDS011;24016;52.102;11.584;2022-10-17T07:13:37;7.65;;;6.03;;
38208;SDS011;24016;52.102;11.584;2022-10-17T07:16:02;8.00;;;5.40;;
38208;SDS011;24016;52.102;11.584;2022-10-17T07:18:28;9.10;;;5.35;;
38208;SDS011;24016;52.102;11.584;2022-10-17T07:20:54;7.43;;;4.78;;
38208;SDS011;24016;52.102;11.584;2022-10-17T07:23:20;5.75;;;4.82;;
38208;SDS011;24016;52.102;11.584;2022-10-17T07:25:46;5.60;;;4.95;;
38208;SDS011;24016;52.102;11.584;2022-10-17T07:28:12;6.78;;;4.72;;
38208;SDS011;24016;52.102;11.584;2022-10-17T07:30:39;5.15;;;4.13;;
38208;SDS011;24016;52.102;11.584;2022-10-17T07:33:04;5.35;;;3.90;;
38208;SDS011;24016;52.102;11.584;2022-10-17T07:35:30;7.25;;;4.80;;
38208;SDS011;24016;52.102;11.584;2022-10-17T07:37:56;5.93;;;3.95;;
38208;SDS011;24016;52.102;11.584;2022-10-17T07:40:21;5.53;;;4.10;;
38208;SDS011;24016;52.102;11.584;2022-10-17T07:42:47;6.30;;;4.13;;
38208;SDS011;24016;52.102;11.584;2022-10-17T07:45:12;6.57;;;3.63;;
38208;SDS011;24016;52.102;11.584;2022-10-17T07:47:39;6.20;;;3.75;;
38208;SDS011;24016;52.102;11.584;2022-10-17T07:50:05;4.88;;;3.50;;
38208;SDS011;24016;52.102;11.584;2022-10-17T07:52:31;6.90;;;3.60;;
38208;SDS011;24016;52.102;11.584;2022-10-17T07:54:57;9.48;;;3.45;;
38208;SDS011;24016;52.102;11.584;2022-10-17T07:57:23;6.10;;;3.50;;
38208;SDS011;24016;52.102;11.584;2022-10-17T07:59:49;5.10;;;3.22;;
38208;SDS011;24016;52.102;11.584;2022-10-17T08:02:22;6.82;;;3.00;;
38208;SDS011;24016;52.102;11.584;2022-10-17T08:04:49;4.97;;;3.00;;
38208;SDS011;24016;52.102;11.584;2022-10-17T08:07:16;5.80;;;3.10;;
38208;SDS011;24016;52.102;11.584;2022-10-17T08:09:42;5.28;;;3.30;;
38208;SDS011;24016;52.102;11.584;2022-10-17T08:12:08;3.42;;;2.45;;
38208;SDS011;24016;52.102;11.584;2022-10-17T08:14:34;5.20;;;2.97;;
38208;SDS011;24016;52.102;11.584;2022-10-17T08:16:59;5.80;;;2.65;;
38208;SDS011;24016;52.102;11.584;2022-10-17T08:19:25;4.53;;;2.42;;
38208;SDS011;24016;52.102;11.584;2022-10-17T08:21:51;6.43;;;2.65;;
38208;SDS011;24016;52.102;11.584;2022-10-17T08:24:18;5.82;;;2.45;;
38208;SDS011;24016;52.102;11.584;2022-10-17T08:26:44;7.88;;;2.40;;
38208;SDS011;24016;52.102;11.584;2022-10-17T08:29:13;3.00;;;2.25;;
38208;SDS011;24016;52.102;11.584;2022-10-17T08:31:39;4.47;;;2.30;;
38208;SDS011;24016;52.102;11.584;2022-10-17T08:34:05;4.25;;;2.00;;
38208;SDS011;24016;52.102;11.584;2022-10-17T08:36:31;7.13;;;2.20;;
38208;SDS011;24016;52.102;11.584;2022-10-17T08:38:56;4.25;;;2.05;;
38208;SDS011;24016;52.102;11.584;2022-10-17T08:47:01;4.95;;;2.28;;
38208;SDS011;24016;52.102;11.584;2022-10-17T08:49:36;5.73;;;2.33;;
38208;SDS011;24016;52.102;11.584;2022-10-17T08:52:14;2.90;;;1.98;;
38208;SDS011;24016;52.102;11.584;2022-10-17T08:54:46;5.43;;;2.15;;
38208;SDS011;24016;52.102;11.584;2022-10-17T08:57:13;4.43;;;2.10;;
38208;SDS011;24016;52.102;11.584;2022-10-17T08:59:40;4.65;;;2.00;;
38208;SDS011;24016;52.102;11.584;2022-10-17T09:05:13;4.07;;;2.10;;
38208;SDS011;24016;52.102;11.584;2022-10-17T09:13:28;6.47;;;2.15;;
38208;SDS011;24016;52.102;11.584;2022-10-17T09:16:07;2.95;;;1.60;;
38208;SDS011;24016;52.102;11.584;2022-10-17T09:18:42;5.30;;;2.08;;
38208;SDS011;24016;52.102;11.584;2022-10-17T09:21:46;8.95;;;2.20;;
38208;SDS011;24016;52.102;11.584;2022-10-17T09:24:38;3.75;;;1.80;;
38208;SDS011;24016;52.102;11.584;2022-10-17T09:27:13;7.28;;;2.20;;
38208;SDS011;24016;52.102;11.584;2022-10-17T09:30:15;3.85;;;1.73;;
38208;SDS011;24016;52.102;11.584;2022-10-17T09:32:56;5.20;;;1.63;;
38208;SDS011;24016;52.102;11.584;2022-10-17T09:35:21;2.72;;;1.42;;
38208;SDS011;24016;52.102;11.584;2022-10-17T09:37:48;4.45;;;1.65;;
38208;SDS011;24016;52.102;11.584;2022-10-17T09:40:26;6.82;;;1.85;;
38208;SDS011;24016;52.102;11.584;2022-10-17T09:42:57;3.75;;;2.03;;
38208;SDS011;24016;52.102;11.584;2022-10-17T09:45:26;3.35;;;1.95;;
38208;SDS011;24016;52.102;11.584;2022-10-17T09:48:06;5.65;;;1.83;;
38208;SDS011;24016;52.102;11.584;2022-10-17T09:50:50;3.75;;;1.42;;
38208;SDS011;24016;52.102;11.584;2022-10-17T09:53:21;5.72;;;2.05;;
38208;SDS011;24016;52.102;11.584;2022-10-17T09:55:56;2.45;;;1.63;;
38208;SDS011;24016;52.102;11.584;2022-10-17T09:58:23;5.93;;;1.77;;
38208;SDS011;24016;52.102;11.584;2022-10-17T10:01:13;3.97;;;1.98;;
38208;SDS011;24016;52.102;11.584;2022-10-17T10:04:13;1.88;;;1.58;;
38208;SDS011;24016;52.102;11.584;2022-10-17T10:06:40;9.05;;;1.80;;
38208;SDS011;24016;52.102;11.584;2022-10-17T10:09:25;6.85;;;2.08;;
38208;SDS011;24016;52.102;11.584;2022-10-17T10:11:54;5.15;;;2.03;;
38208;SDS011;24016;52.102;11.584;2022-10-17T10:14:22;4.25;;;1.80;;
38208;SDS011;24016;52.102;11.584;2022-10-17T10:19:29;3.75;;;1.88;;
38208;SDS011;24016;52.102;11.584;2022-10-17T10:22:03;3.47;;;1.73;;
38208;SDS011;24016;52.102;11.584;2022-10-17T10:24:41;2.75;;;1.45;;
38208;SDS011;24016;52.102;11.584;2022-10-17T10:27:14;2.85;;;1.58;;
38208;SDS011;24016;52.102;11.584;2022-10-17T10:29:48;4.28;;;1.90;;
38208;SDS011;24016;52.102;11.584;2022-10-17T10:32:17;7.72;;;1.90;;
38208;SDS011;24016;52.102;11.584;2022-10-17T10:34:48;7.68;;;2.17;;
38208;SDS011;24016;52.102;11.584;2022-10-17T10:37:29;7.10;;;2.10;;
38208;SDS011;24016;52.102;11.584;2022-10-17T10:40:03;6.13;;;1.98;;
38208;SDS011;24016;52.102;11.584;2022-10-17T10:42:34;3.60;;;1.70;;
38208;SDS011;24016;52.102;11.584;2022-10-17T10:47:54;4.63;;;2.05;;
38208;SDS011;24016;52.102;11.584;2022-10-17T10:50:27;2.67;;;1.60;;
38208;SDS011;24016;52.102;11.584;2022-10-17T10:53:22;2.58;;;1.67;;
38208;SDS011;24016;52.102;11.584;2022-10-17T10:55:59;3.90;;;1.50;;
38208;SDS011;24016;52.102;11.584;2022-10-17T10:58:39;3.70;;;1.90;;
38208;SDS011;24016;52.102;11.584;2022-10-17T11:01:08;4.60;;;2.05;;
38208;SDS011;24016;52.102;11.584;2022-10-17T11:04:01;6.22;;;1.70;;
38208;SDS011;24016;52.102;11.584;2022-10-17T11:06:35;3.30;;;1.52;;
38208;SDS011;24016;52.102;11.584;2022-10-17T11:12:05;3.53;;;1.88;;
38208;SDS011;24016;52.102;11.584;2022-10-17T11:14:52;3.33;;;1.60;;
38208;SDS011;24016;52.102;11.584;2022-10-17T11:23:29;11.40;;;2.65;;
38208;SDS011;24016;52.102;11.584;2022-10-17T11:26:14;8.55;;;2.08;;
38208;SDS011;24016;52.102;11.584;2022-10-17T11:28:50;7.30;;;2.25;;
38208;SDS011;24016;52.102;11.584;2022-10-17T11:31:16;3.00;;;1.80;;
38208;SDS011;24016;52.102;11.584;2022-10-17T11:36:21;5.35;;;1.60;;
38208;SDS011;24016;52.102;11.584;2022-10-17T11:38:52;3.97;;;1.70;;
38208;SDS011;24016;52.102;11.584;2022-10-17T11:41:28;3.45;;;1.83;;
38208;SDS011;24016;52.102;11.584;2022-10-17T11:43:56;5.88;;;1.80;;
38208;SDS011;24016;52.102;11.584;2022-10-17T11:46:26;6.35;;;2.30;;
38208;SDS011;24016;52.102;11.584;2022-10-17T11:49:00;3.75;;;1.70;;
38208;SDS011;24016;52.102;11.584;2022-10-17T11:51:44;4.53;;;1.70;;
38208;SDS011;24016;52.102;11.584;2022-10-17T11:54:17;5.25;;;1.83;;
38208;SDS011;24016;52.102;11.584;2022-10-17T11:59:51;5.32;;;2.13;;
38208;SDS011;24016;52.102;11.584;2022-10-17T12:02:27;5.30;;;2.10;;
38208;SDS011;24016;52.102;11.584;2022-10-17T12:05:02;5.07;;;1.95;;
38208;SDS011;24016;52.102;11.584;2022-10-17T12:07:57;4.75;;;1.90;;
38208;SDS011;24016;52.102;11.584;2022-10-17T12:10:41;3.20;;;1.80;;
38208;SDS011;24016;52.102;11.584;2022-10-17T12:15:52;3.55;;;2.00;;
38208;SDS011;24016;52.102;11.584;2022-10-17T12:18:36;5.43;;;2.28;;
38208;SDS011;24016;52.102;11.584;2022-10-17T12:21:02;6.70;;;2.03;;
38208;SDS011;24016;52.102;11.584;2022-10-17T12:23:28;6.97;;;2.35;;
38208;SDS011;24016;52.102;11.584;2022-10-17T12:25:57;3.67;;;2.20;;
38208;SDS011;24016;52.102;11.584;2022-10-17T12:31:28;5.22;;;1.90;;
38208;SDS011;24016;52.102;11.584;2022-10-17T12:33:54;3.72;;;1.75;;
38208;SDS011;24016;52.102;11.584;2022-10-17T12:49:41;4.05;;;1.77;;
38208;SDS011;24016;52.102;11.584;2022-10-17T12:55:46;3.72;;;1.80;;
38208;SDS011;24016;52.102;11.584;2022-10-17T12:57:52;5.15;;;1.90;;
38208;SDS011;24016;52.102;11.584;2022-10-17T13:00:24;6.93;;;1.87;;
38208;SDS011;24016;52.102;11.584;2022-10-17T13:03:00;5.35;;;1.92;;
38208;SDS011;24016;52.102;11.584;2022-10-17T13:05:35;4.15;;;1.83;;
38208;SDS011;24016;52.102;11.584;2022-10-17T13:08:03;6.70;;;1.73;;
38208;SDS011;24016;52.102;11.584;2022-10-17T13:10:32;7.60;;;1.67;;
38208;SDS011;24016;52.102;11.584;2022-10-17T13:13:03;4.80;;;1.80;;
38208;SDS011;24016;52.102;11.584;2022-10-17T13:15:57;4.28;;;2.00;;
38208;SDS011;24016;52.102;11.584;2022-10-17T13:18:24;5.28;;;1.50;;
38208;SDS011;24016;52.102;11.584;2022-10-17T13:20:56;10.73;;;2.13;;
38208;SDS011;24016;52.102;11.584;2022-10-17T13:23:28;6.88;;;1.88;;
38208;SDS011;24016;52.102;11.584;2022-10-17T13:26:12;5.15;;;2.20;;
38208;SDS011;24016;52.102;11.584;2022-10-17T13:28:41;4.82;;;1.50;;
38208;SDS011;24016;52.102;11.584;2022-10-17T13:31:21;5.80;;;1.70;;
38208;SDS011;24016;52.102;11.584;2022-10-17T13:33:55;4.10;;;1.50;;
38208;SDS011;24016;52.102;11.584;2022-10-17T13:36:22;4.43;;;1.63;;
38208;SDS011;24016;52.102;11.584;2022-10-17T13:38:49;4.30;;;1.65;;
38208;SDS011;24016;52.102;11.584;2022-10-17T13:41:15;3.47;;;1.70;;
38208;SDS011;24016;52.102;11.584;2022-10-17T13:43:45;4.88;;;1.85;;
38208;SDS011;24016;52.102;11.584;2022-10-17T13:46:15;4.75;;;1.75;;
38208;SDS011;24016;52.102;11.584;2022-10-17T13:48:57;6.80;;;1.55;;
38208;SDS011;24016;52.102;11.584;2022-10-17T13:51:24;4.07;;;1.80;;
38208;SDS011;24016;52.102;11.584;2022-10-17T13:53:51;5.28;;;1.90;;
38208;SDS011;24016;52.102;11.584;2022-10-17T13:58:45;9.45;;;2.35;;
38208;SDS011;24016;52.102;11.584;2022-10-17T14:01:13;6.68;;;1.60;;
38208;SDS011;24016;52.102;11.584;2022-10-17T14:03:40;5.78;;;2.00;;
38208;SDS011;24016;52.102;11.584;2022-10-17T14:06:14;8.73;;;2.10;;
38208;SDS011;24016;52.102;11.584;2022-10-17T14:08:58;14.32;;;2.58;;
38208;SDS011;24016;52.102;11.584;2022-10-17T14:11:36;7.63;;;2.80;;
38208;SDS011;24016;52.102;11.584;2022-10-17T14:14:15;5.78;;;2.30;;
38208;SDS011;24016;52.102;11.584;2022-10-17T14:16:46;8.52;;;1.77;;
38208;SDS011;24016;52.102;11.584;2022-10-17T14:19:22;7.90;;;1.83;;
38208;SDS011;24016;52.102;11.584;2022-10-17T14:22:02;5.15;;;1.73;;
38208;SDS011;24016;52.102;11.584;2022-10-17T14:24:43;8.73;;;1.75;;
38208;SDS011;24016;52.102;11.584;2022-10-17T14:30:05;5.70;;;1.80;;
38208;SDS011;24016;52.102;11.584;2022-10-17T14:32:51;2.80;;;1.33;;
38208;SDS011;24016;52.102;11.584;2022-10-17T14:35:20;4.97;;;1.92;;
38208;SDS011;24016;52.102;11.584;2022-10-17T14:37:47;7.20;;;1.85;;
38208;SDS011;24016;52.102;11.584;2022-10-17T14:40:16;6.38;;;1.88;;
38208;SDS011;24016;52.102;11.584;2022-10-17T14:42:43;4.28;;;1.80;;
38208;SDS011;24016;52.102;11.584;2022-10-17T14:45:11;8.82;;;1.88;;
38208;SDS011;24016;52.102;11.584;2022-10-17T14:47:49;6.03;;;1.85;;
38208;SDS011;24016;52.102;11.584;2022-10-17T14:55:56;5.45;;;1.70;;
38208;SDS011;24016;52.102;11.584;2022-10-17T14:58:25;6.90;;;1.77;;
38208;SDS011;24016;52.102;11.584;2022-10-17T15:00:52;8.30;;;2.13;;
38208;SDS011;24016;52.102;11.584;2022-10-17T15:03:17;4.93;;;1.80;;
38208;SDS011;24016;52.102;11.584;2022-10-17T15:05:44;7.32;;;2.22;;
38208;SDS011;24016;52.102;11.584;2022-10-17T15:08:11;5.50;;;1.65;;
38208;SDS011;24016;52.102;11.584;2022-10-17T15:10:39;9.85;;;1.90;;
38208;SDS011;24016;52.102;11.584;2022-10-17T15:13:06;8.07;;;1.90;;
38208;SDS011;24016;52.102;11.584;2022-10-17T15:15:32;9.02;;;2.00;;
38208;SDS011;24016;52.102;11.584;2022-10-17T15:17:58;3.78;;;1.83;;
38208;SDS011;24016;52.102;11.584;2022-10-17T15:20:25;7.38;;;2.10;;
38208;SDS011;24016;52.102;11.584;2022-10-17T15:22:53;3.65;;;1.60;;
38208;SDS011;24016;52.102;11.584;2022-10-17T15:25:20;7.20;;;1.90;;
38208;SDS011;24016;52.102;11.584;2022-10-17T15:27:46;3.72;;;2.00;;
38208;SDS011;24016;52.102;11.584;2022-10-17T15:32:48;7.43;;;2.17;;
38208;SDS011;24016;52.102;11.584;2022-10-17T15:35:15;8.20;;;2.00;;
38208;SDS011;24016;52.102;11.584;2022-10-17T15:37:41;4.93;;;1.75;;
38208;SDS011;24016;52.102;11.584;2022-10-17T15:40:09;4.93;;;1.85;;
38208;SDS011;24016;52.102;11.584;2022-10-17T15:42:39;4.63;;;1.63;;
38208;SDS011;24016;52.102;11.584;2022-10-17T15:45:05;4.95;;;1.98;;
38208;SDS011;24016;52.102;11.584;2022-10-17T15:47:32;5.88;;;2.05;;
38208;SDS011;24016;52.102;11.584;2022-10-17T15:49:58;4.47;;;1.85;;
38208;SDS011;24016;52.102;11.584;2022-10-17T15:52:25;6.22;;;2.28;;
38208;SDS011;24016;52.102;11.584;2022-10-17T15:54:51;5.47;;;1.98;;
38208;SDS011;24016;52.102;11.584;2022-10-17T15:57:22;6.00;;;1.92;;
38208;SDS011;24016;52.102;11.584;2022-10-17T15:59:50;8.18;;;1.75;;
38208;SDS011;24016;52.102;11.584;2022-10-17T16:02:17;9.13;;;1.88;;
38208;SDS011;24016;52.102;11.584;2022-10-17T16:04:44;4.50;;;1.92;;
38208;SDS011;24016;52.102;11.584;2022-10-17T16:07:11;6.00;;;2.38;;
38208;SDS011;24016;52.102;11.584;2022-10-17T16:09:37;5.07;;;2.50;;
38208;SDS011;24016;52.102;11.584;2022-10-17T16:12:04;7.22;;;2.50;;
38208;SDS011;24016;52.102;11.584;2022-10-17T16:14:34;9.30;;;2.87;;
38208;SDS011;24016;52.102;11.584;2022-10-17T16:16:59;5.57;;;2.33;;
38208;SDS011;24016;52.102;11.584;2022-10-17T16:19:25;6.03;;;2.65;;
38208;SDS011;24016;52.102;11.584;2022-10-17T16:21:54;6.20;;;2.60;;
38208;SDS011;24016;52.102;11.584;2022-10-17T16:26:50;5.95;;;2.40;;
38208;SDS011;24016;52.102;11.584;2022-10-17T16:29:16;6.47;;;2.22;;